createdAt,value
2023-03-30T00:00:32.474Z,12.82
2023-03-30T00:02:38.880Z,13.43
2023-03-30T00:04:43.247Z,8.45
2023-03-30T00:06:46.949Z,13.63
2023-03-30T00:08:53.745Z,18.60
2023-03-30T00:11:02.527Z,10.77
2023-03-30T00:13:06.257Z,11.10
2023-03-30T00:15:12.564Z,11.52
2023-03-30T00:17:17.729Z,14.60
2023-03-30T00:19:21.796Z,12.40
2023-03-30T00:21:25.332Z,7.45
2023-03-30T00:23:29.018Z,10.43
2023-03-30T00:25:32.652Z,10.30
2023-03-30T00:27:36.417Z,8.40
2023-03-30T00:29:42.639Z,9.32
2023-03-30T00:31:46.434Z,9.07
2023-03-30T00:33:52.021Z,10.23
2023-03-30T00:35:57.494Z,10.85
2023-03-30T00:38:03.492Z,7.47
2023-03-30T00:40:08.980Z,9.07
2023-03-30T00:42:17.691Z,9.65
2023-03-30T00:45:07.068Z,11.13
2023-03-30T00:47:11.020Z,16.08
2023-03-30T00:49:16.016Z,21.25
2023-03-30T00:53:26.586Z,9.02
2023-03-30T00:55:33.732Z,8.63
2023-03-30T00:57:38.899Z,16.15
2023-03-30T00:59:42.541Z,16.38
2023-03-30T01:01:50.232Z,21.52
2023-03-30T01:03:54.419Z,16.38
2023-03-30T01:06:01.423Z,13.07
2023-03-30T01:08:07.747Z,10.20
2023-03-30T01:10:12.853Z,11.88
2023-03-30T01:12:16.616Z,12.93
2023-03-30T01:14:22.402Z,14.85
2023-03-30T01:16:31.527Z,13.23
2023-03-30T01:18:47.955Z,10.98
2023-03-30T01:21:27.601Z,18.38
2023-03-30T01:24:27.939Z,15.80
2023-03-30T01:26:57.163Z,10.48
2023-03-30T01:29:08.393Z,10.30
2023-03-30T01:31:46.369Z,14.75
2023-03-30T01:34:17.854Z,12.25
2023-03-30T01:37:11.636Z,21.35
2023-03-30T01:39:33.923Z,16.88
2023-03-30T01:41:41.075Z,16.73
2023-03-30T01:43:51.207Z,13.05
2023-03-30T01:46:01.338Z,12.80
2023-03-30T01:48:11.694Z,13.25
2023-03-30T01:50:18.395Z,16.05
2023-03-30T01:52:29.032Z,15.13
2023-03-30T01:54:38.039Z,10.50
2023-03-30T01:56:48.018Z,13.60
2023-03-30T01:58:55.336Z,12.95
2023-03-30T02:00:59.998Z,13.43
2023-03-30T02:03:08.822Z,12.23
2023-03-30T02:05:18.082Z,13.65
2023-03-30T02:07:26.329Z,7.80
2023-03-30T02:09:32.526Z,10.50
2023-03-30T02:11:40.009Z,10.00
2023-03-30T02:13:44.599Z,7.20
2023-03-30T02:15:52.849Z,7.97
2023-03-30T02:17:56.386Z,18.13
2023-03-30T02:20:00.350Z,8.48
2023-03-30T02:22:03.936Z,8.10
2023-03-30T02:24:17.876Z,8.48
2023-03-30T02:26:23.046Z,11.70
2023-03-30T02:28:28.082Z,8.07
2023-03-30T02:30:34.820Z,8.95
2023-03-30T02:32:42.619Z,7.03
2023-03-30T02:35:02.671Z,6.15
2023-03-30T02:37:32.784Z,10.82
2023-03-30T02:39:47.863Z,7.32
2023-03-30T02:42:33.166Z,14.48
2023-03-30T02:44:45.116Z,13.60
2023-03-30T02:47:04.078Z,8.88
2023-03-30T02:49:19.199Z,10.32
2023-03-30T02:51:40.101Z,18.23
2023-03-30T02:54:15.436Z,7.20
2023-03-30T02:56:47.029Z,8.45
2023-03-30T02:58:55.357Z,8.68
2023-03-30T03:01:05.101Z,6.35
2023-03-30T03:03:24.527Z,13.48
2023-03-30T03:05:32.654Z,14.82
2023-03-30T03:07:42.867Z,8.98
2023-03-30T03:09:47.801Z,9.38
2023-03-30T03:11:52.416Z,19.58
2023-03-30T03:13:56.140Z,15.50
2023-03-30T03:16:04.201Z,12.70
2023-03-30T03:18:08.729Z,10.07
2023-03-30T03:20:13.880Z,7.18
2023-03-30T03:22:17.323Z,8.05
2023-03-30T03:24:22.420Z,6.43
2023-03-30T03:29:03.630Z,8.88
2023-03-30T03:31:08.490Z,9.45
2023-03-30T03:35:18.016Z,8.48
2023-03-30T03:37:21.452Z,10.57
2023-03-30T03:39:25.126Z,9.88
2023-03-30T03:41:33.024Z,8.57
2023-03-30T03:43:36.800Z,11.27
2023-03-30T03:45:40.290Z,14.43
2023-03-30T03:47:45.086Z,8.27
2023-03-30T03:49:48.389Z,14.02
2023-03-30T03:51:51.777Z,8.65
2023-03-30T03:53:55.072Z,11.70
2023-03-30T03:55:58.568Z,8.68
2023-03-30T03:58:03.548Z,10.93
2023-03-30T04:00:15.780Z,10.30
2023-03-30T04:02:23.941Z,12.40
2023-03-30T04:04:31.104Z,11.75
2023-03-30T04:08:37.733Z,6.03
2023-03-30T04:11:08.170Z,10.13
2023-03-30T04:13:46.679Z,11.05
2023-03-30T04:16:09.438Z,11.68
2023-03-30T04:18:33.737Z,9.60
2023-03-30T04:20:48.261Z,14.63
2023-03-30T04:23:10.235Z,7.70
2023-03-30T04:25:32.383Z,9.13
2023-03-30T04:27:56.183Z,10.50
2023-03-30T04:30:22.566Z,11.63
2023-03-30T04:32:45.056Z,8.50
2023-03-30T04:35:11.272Z,8.20
2023-03-30T04:37:34.614Z,11.90
2023-03-30T04:40:16.440Z,10.27
2023-03-30T04:42:37.954Z,9.30
2023-03-30T04:45:02.333Z,13.85
2023-03-30T04:47:30.350Z,12.05
2023-03-30T04:49:52.185Z,11.13
2023-03-30T04:52:14.454Z,9.63
2023-03-30T04:54:42.966Z,7.43
2023-03-30T04:57:14.187Z,8.15
2023-03-30T04:59:20.942Z,9.68
2023-03-30T05:01:43.344Z,8.18
2023-03-30T05:04:06.958Z,12.38
2023-03-30T05:06:33.604Z,18.08
2023-03-30T05:09:03.041Z,8.90
2023-03-30T05:11:43.604Z,8.25
2023-03-30T05:14:01.796Z,6.28
2023-03-30T05:16:31.368Z,5.85
2023-03-30T05:19:01.584Z,13.23
2023-03-30T05:21:27.704Z,10.23
2023-03-30T05:23:52.292Z,13.98
2023-03-30T05:26:14.421Z,7.63
2023-03-30T05:28:19.537Z,6.40
2023-03-30T05:30:32.654Z,8.55
2023-03-30T05:33:02.669Z,11.63
2023-03-30T05:35:27.239Z,10.63
2023-03-30T05:37:39.893Z,10.25
2023-03-30T05:42:40.184Z,14.88
2023-03-30T05:45:09.818Z,9.32
2023-03-30T05:47:32.063Z,11.13
2023-03-30T05:49:38.403Z,11.02
2023-03-30T05:52:17.771Z,10.32
2023-03-30T05:54:33.456Z,12.93
2023-03-30T05:56:47.080Z,12.48
2023-03-30T05:58:57.811Z,11.90
2023-03-30T06:03:34.967Z,11.25
2023-03-30T06:05:42.160Z,8.93
2023-03-30T06:07:47.534Z,8.90
2023-03-30T06:09:51.371Z,7.78
2023-03-30T06:12:02.771Z,10.65
2023-03-30T06:14:08.079Z,7.57
2023-03-30T06:16:13.429Z,6.95
2023-03-30T06:18:19.141Z,10.13
2023-03-30T06:20:32.716Z,9.18
2023-03-30T06:22:37.245Z,8.65
2023-03-30T06:24:47.671Z,5.03
2023-03-30T06:26:52.416Z,8.15
2023-03-30T06:28:56.545Z,10.73
2023-03-30T06:31:03.369Z,5.88
2023-03-30T06:33:08.218Z,9.13
2023-03-30T06:35:21.844Z,8.75
2023-03-30T06:37:27.070Z,6.38
2023-03-30T06:39:30.499Z,5.55
2023-03-30T06:41:34.056Z,4.78
2023-03-30T06:43:41.965Z,9.73
2023-03-30T06:45:54.207Z,7.72
2023-03-30T06:47:57.991Z,10.32
2023-03-30T06:50:01.761Z,6.32
2023-03-30T06:52:25.538Z,1.90
2023-03-30T06:54:30.237Z,4.97
2023-03-30T06:56:41.890Z,4.95
2023-03-30T06:58:47.383Z,3.65
2023-03-30T07:00:51.345Z,4.90
2023-03-30T07:03:07.377Z,4.85
2023-03-30T07:05:48.205Z,3.60
2023-03-30T07:07:59.890Z,3.25
2023-03-30T07:10:10.242Z,3.53
2023-03-30T07:12:14.151Z,3.08
2023-03-30T07:14:17.821Z,1.98
2023-03-30T07:16:22.388Z,4.40
2023-03-30T07:18:26.010Z,2.63
2023-03-30T07:20:29.733Z,7.10
2023-03-30T07:22:43.871Z,3.72
2023-03-30T07:24:49.214Z,2.25
2023-03-30T07:26:53.129Z,3.50
2023-03-30T07:28:57.654Z,3.05
2023-03-30T07:31:07.004Z,2.90
2023-03-30T07:33:12.038Z,1.10
2023-03-30T07:35:15.839Z,2.22
2023-03-30T07:37:21.005Z,2.80
2023-03-30T07:39:26.523Z,4.13
2023-03-30T07:41:31.871Z,2.72
2023-03-30T07:43:36.821Z,2.35
2023-03-30T07:45:40.666Z,3.28
2023-03-30T07:47:47.171Z,4.18
2023-03-30T07:49:52.243Z,4.47
2023-03-30T07:51:56.517Z,4.80
2023-03-30T07:54:12.024Z,2.80
2023-03-30T07:56:39.728Z,4.45
2023-03-30T07:58:46.324Z,5.25
2023-03-30T08:00:50.447Z,5.80
2023-03-30T08:03:12.975Z,6.22
2023-03-30T08:05:17.991Z,5.80
2023-03-30T08:07:40.565Z,3.88
2023-03-30T08:09:51.983Z,5.78
2023-03-30T08:11:57.998Z,6.72
2023-03-30T08:14:02.014Z,5.80
2023-03-30T08:16:06.125Z,6.25
2023-03-30T08:18:13.150Z,3.17
2023-03-30T08:20:17.621Z,8.93
2023-03-30T08:22:21.238Z,5.10
2023-03-30T08:24:24.995Z,5.85
2023-03-30T08:26:28.593Z,3.78
2023-03-30T08:28:34.245Z,2.33
2023-03-30T08:30:37.923Z,5.72
2023-03-30T08:32:41.753Z,7.18
2023-03-30T08:34:45.207Z,9.15
2023-03-30T08:36:49.164Z,4.53
2023-03-30T08:38:53.459Z,4.55
2023-03-30T08:40:57.343Z,2.83
2023-03-30T08:43:34.576Z,8.90
2023-03-30T08:45:42.793Z,6.25
2023-03-30T08:47:49.594Z,8.05
2023-03-30T08:50:02.353Z,4.75
2023-03-30T08:52:08.098Z,6.72
2023-03-30T08:54:16.967Z,20.83
2023-03-30T08:56:23.697Z,6.43
2023-03-30T08:58:40.496Z,4.68
2023-03-30T09:00:50.434Z,9.63
2023-03-30T09:03:00.711Z,8.15
2023-03-30T09:05:11.107Z,5.13
2023-03-30T09:07:19.865Z,6.97
2023-03-30T09:09:26.423Z,6.72
2023-03-30T09:11:34.907Z,6.70
2023-03-30T09:13:41.108Z,5.53
2023-03-30T09:15:51.982Z,7.50
2023-03-30T09:18:01.398Z,7.25
2023-03-30T09:20:10.473Z,4.05
2023-03-30T09:22:16.376Z,6.90
2023-03-30T09:24:26.308Z,10.20
2023-03-30T09:26:37.064Z,11.90
2023-03-30T09:28:51.111Z,7.00
2023-03-30T09:31:02.904Z,6.50
2023-03-30T09:33:15.783Z,9.15
2023-03-30T09:35:25.042Z,6.10
2023-03-30T09:37:29.974Z,8.98
2023-03-30T09:42:01.267Z,9.57
2023-03-30T09:44:04.834Z,7.93
2023-03-30T09:46:10.312Z,5.55
2023-03-30T09:48:17.413Z,9.45
2023-03-30T09:50:24.921Z,9.60
2023-03-30T09:52:30.226Z,7.65
2023-03-30T09:54:38.316Z,4.57
2023-03-30T09:56:47.898Z,8.60
2023-03-30T09:58:51.679Z,9.20
2023-03-30T10:01:08.576Z,8.68
2023-03-30T10:03:22.083Z,7.13
2023-03-30T10:05:26.505Z,5.95
2023-03-30T10:07:33.412Z,8.27
2023-03-30T10:09:46.016Z,8.70
2023-03-30T10:11:51.777Z,8.02
2023-03-30T10:13:55.477Z,9.45
2023-03-30T10:16:05.375Z,10.02
2023-03-30T10:18:25.351Z,7.88
2023-03-30T10:20:34.609Z,12.82
2023-03-30T10:22:49.552Z,7.53
2023-03-30T10:24:55.708Z,12.20
2023-03-30T10:27:01.109Z,7.32
2023-03-30T10:29:07.660Z,6.55
2023-03-30T10:31:17.686Z,7.95
2023-03-30T10:33:23.289Z,4.47
2023-03-30T10:35:29.877Z,5.68
2023-03-30T10:37:37.604Z,7.18
2023-03-30T10:39:43.440Z,7.05
2023-03-30T10:41:48.891Z,6.70
2023-03-30T10:43:53.479Z,5.40
2023-03-30T10:46:09.030Z,5.15
2023-03-30T10:48:49.342Z,4.82
2023-03-30T10:50:59.394Z,7.88
2023-03-30T10:53:14.861Z,5.32
2023-03-30T10:55:24.875Z,10.15
2023-03-30T10:57:41.277Z,8.18
2023-03-30T11:00:10.010Z,5.30
2023-03-30T11:02:41.530Z,8.48
2023-03-30T11:04:49.119Z,7.40
2023-03-30T11:06:54.801Z,9.15
2023-03-30T11:09:02.504Z,6.65
2023-03-30T11:11:09.164Z,6.05
2023-03-30T11:13:17.347Z,7.53
2023-03-30T11:15:27.336Z,11.68
2023-03-30T11:17:34.391Z,7.65
2023-03-30T11:19:43.735Z,4.70
2023-03-30T11:21:57.096Z,8.27
2023-03-30T11:24:08.494Z,7.43
2023-03-30T11:26:13.775Z,4.70
2023-03-30T11:28:24.420Z,9.75
2023-03-30T11:30:31.346Z,8.30
2023-03-30T11:32:40.360Z,3.85
2023-03-30T11:34:55.594Z,6.75
2023-03-30T11:37:06.903Z,6.30
2023-03-30T11:39:28.892Z,3.25
2023-03-30T11:41:38.335Z,3.30
2023-03-30T11:43:42.548Z,4.70
2023-03-30T11:45:56.602Z,5.03
2023-03-30T11:48:13.718Z,4.65
2023-03-30T11:50:33.522Z,3.42
2023-03-30T11:52:48.063Z,4.15
2023-03-30T11:55:23.986Z,3.83
2023-03-30T11:57:35.192Z,3.53
2023-03-30T11:59:47.484Z,5.75
2023-03-30T12:02:08.516Z,5.50
2023-03-30T12:04:16.047Z,4.47
2023-03-30T12:06:30.347Z,7.45
2023-03-30T12:08:50.265Z,4.35
2023-03-30T12:11:02.737Z,2.63
2023-03-30T12:13:07.067Z,6.38
2023-03-30T12:15:27.687Z,5.88
2023-03-30T12:17:49.632Z,6.43
2023-03-30T12:19:58.767Z,5.57
2023-03-30T12:22:06.923Z,6.45
2023-03-30T12:24:20.336Z,7.63
2023-03-30T12:26:28.666Z,4.20
2023-03-30T12:30:57.538Z,3.90
2023-03-30T12:33:12.529Z,4.32
2023-03-30T12:35:48.355Z,6.35
2023-03-30T12:40:06.464Z,2.60
2023-03-30T12:42:26.368Z,6.13
2023-03-30T12:44:39.955Z,3.78
2023-03-30T12:46:53.041Z,3.55
2023-03-30T12:49:08.036Z,5.40
2023-03-30T12:51:22.200Z,3.13
2023-03-30T12:53:53.985Z,6.25
2023-03-30T12:56:07.735Z,6.45
2023-03-30T12:58:44.139Z,5.65
2023-03-30T13:01:08.185Z,1.88
2023-03-30T13:03:32.935Z,4.60
2023-03-30T13:05:40.986Z,5.53
2023-03-30T13:07:46.312Z,5.05
2023-03-30T13:09:55.986Z,3.70
2023-03-30T13:12:29.237Z,4.50
2023-03-30T13:14:46.203Z,6.13
2023-03-30T13:17:11.571Z,5.35
2023-03-30T13:19:22.645Z,4.20
2023-03-30T13:21:27.471Z,3.58
2023-03-30T13:25:44.532Z,5.68
2023-03-30T13:27:52.633Z,4.57
2023-03-30T13:29:58.423Z,5.15
2023-03-30T13:32:16.425Z,6.70
2023-03-30T13:34:32.905Z,2.85
2023-03-30T13:36:41.784Z,0.68
2023-03-30T13:39:05.440Z,3.17
2023-03-30T13:41:28.460Z,3.80
2023-03-30T13:43:53.803Z,4.18
2023-03-30T13:46:15.557Z,4.32
2023-03-30T13:48:40.747Z,4.70
2023-03-30T13:52:54.029Z,2.92
2023-03-30T13:54:58.477Z,2.50
2023-03-30T13:57:09.697Z,4.78
2023-03-30T13:59:19.563Z,2.53
2023-03-30T14:01:25.707Z,4.32
2023-03-30T14:03:39.798Z,2.05
2023-03-30T14:05:43.600Z,4.55
2023-03-30T14:07:47.684Z,2.33
2023-03-30T14:10:10.029Z,1.83
2023-03-30T14:12:15.127Z,3.72
2023-03-30T14:14:25.263Z,2.40
2023-03-30T14:16:35.210Z,3.95
2023-03-30T14:18:39.079Z,5.72
2023-03-30T14:20:48.861Z,3.92
2023-03-30T14:22:54.150Z,5.50
2023-03-30T14:24:59.792Z,9.50
2023-03-30T14:27:05.520Z,3.30
2023-03-30T14:29:24.594Z,4.75
2023-03-30T14:31:42.531Z,6.28
2023-03-30T14:33:47.064Z,5.90
2023-03-30T14:35:53.154Z,6.43
2023-03-30T14:38:06.768Z,7.55
2023-03-30T14:40:18.366Z,4.00
2023-03-30T14:42:23.854Z,7.10
2023-03-30T14:44:27.575Z,9.02
2023-03-30T14:46:39.249Z,8.27
2023-03-30T14:48:49.305Z,10.52
2023-03-30T14:50:54.390Z,10.80
2023-03-30T14:52:58.234Z,11.00
2023-03-30T14:55:09.103Z,15.35
2023-03-30T14:57:17.654Z,10.38
2023-03-30T14:59:22.106Z,8.25
2023-03-30T15:01:31.688Z,11.27
2023-03-30T15:03:38.534Z,15.73
2023-03-30T15:05:47.233Z,11.02
2023-03-30T15:07:52.543Z,10.15
2023-03-30T15:09:57.534Z,8.38
2023-03-30T15:12:03.392Z,8.27
2023-03-30T15:14:09.976Z,10.50
2023-03-30T15:16:19.528Z,7.20
2023-03-30T15:18:27.268Z,7.75
2023-03-30T15:20:32.720Z,11.90
2023-03-30T15:22:40.254Z,10.68
2023-03-30T15:24:44.501Z,15.45
2023-03-30T15:26:50.804Z,9.05
2023-03-30T15:28:58.551Z,9.07
2023-03-30T15:31:02.720Z,8.50
2023-03-30T15:33:08.402Z,8.60
2023-03-30T15:35:23.296Z,10.75
2023-03-30T15:37:26.945Z,7.05
2023-03-30T15:39:36.277Z,5.70
2023-03-30T15:41:47.721Z,11.82
2023-03-30T15:43:57.067Z,9.13
2023-03-30T15:46:03.628Z,10.93
2023-03-30T15:48:13.072Z,12.35
2023-03-30T15:50:19.367Z,6.40
2023-03-30T15:52:26.127Z,7.32
2023-03-30T15:54:38.683Z,11.13
2023-03-30T15:56:46.333Z,7.72
2023-03-30T15:58:51.002Z,6.55
2023-03-30T16:00:54.758Z,8.52
2023-03-30T16:03:00.085Z,6.63
2023-03-30T16:05:05.639Z,12.63
2023-03-30T16:07:16.729Z,11.45
2023-03-30T16:09:20.377Z,15.27
2023-03-30T16:11:25.638Z,10.27
2023-03-30T16:13:29.364Z,8.68
2023-03-30T16:15:35.089Z,16.33
2023-03-30T16:17:38.630Z,11.82
2023-03-30T16:19:42.685Z,10.25
2023-03-30T16:21:46.389Z,10.13
2023-03-30T16:23:49.964Z,12.93
2023-03-30T16:25:53.591Z,8.45
2023-03-30T16:27:58.992Z,9.05
2023-03-30T16:30:02.624Z,8.40
2023-03-30T16:32:06.574Z,10.10
2023-03-30T16:34:10.313Z,10.30
2023-03-30T16:36:16.074Z,13.65
2023-03-30T16:38:20.399Z,10.40
2023-03-30T16:40:32.593Z,6.60
2023-03-30T16:42:36.106Z,7.25
2023-03-30T16:44:41.536Z,11.63
2023-03-30T16:46:46.141Z,9.40
2023-03-30T16:48:50.519Z,8.85
2023-03-30T16:50:55.251Z,11.38
2023-03-30T16:52:58.952Z,8.15
2023-03-30T16:55:02.746Z,6.00
2023-03-30T16:57:08.632Z,9.20
2023-03-30T16:59:22.599Z,10.77
2023-03-30T17:01:28.841Z,9.32
2023-03-30T17:03:32.920Z,14.48
2023-03-30T17:05:36.522Z,11.45
2023-03-30T17:07:40.552Z,11.57
2023-03-30T17:09:44.380Z,13.52
2023-03-30T17:11:49.497Z,7.03
2023-03-30T17:13:53.044Z,10.27
2023-03-30T17:15:58.502Z,7.85
2023-03-30T17:18:06.193Z,7.55
2023-03-30T17:20:24.063Z,12.00
2023-03-30T17:22:27.699Z,12.07
2023-03-30T17:24:31.405Z,8.75
2023-03-30T17:26:35.283Z,9.00
2023-03-30T17:28:39.619Z,6.15
2023-03-30T17:30:43.246Z,7.50
2023-03-30T17:32:46.895Z,9.40
2023-03-30T17:34:51.931Z,11.70
2023-03-30T17:36:55.857Z,21.15
2023-03-30T17:39:00.178Z,11.30
2023-03-30T17:41:03.916Z,12.45
2023-03-30T17:43:08.512Z,7.07
2023-03-30T17:45:13.451Z,11.55
2023-03-30T17:49:20.600Z,12.50
2023-03-30T17:51:26.137Z,19.67
2023-03-30T17:53:29.943Z,14.80
2023-03-30T17:55:35.180Z,11.85
2023-03-30T17:57:38.749Z,15.13
2023-03-30T17:59:42.421Z,8.95
2023-03-30T18:01:46.126Z,15.45
2023-03-30T18:03:49.909Z,14.18
2023-03-30T18:05:54.014Z,13.60
2023-03-30T18:07:59.552Z,12.60
2023-03-30T18:10:04.945Z,13.18
2023-03-30T18:12:08.816Z,23.70
2023-03-30T18:14:13.217Z,17.85
2023-03-30T18:16:18.104Z,11.73
2023-03-30T18:20:32.418Z,15.00
2023-03-30T18:22:36.532Z,14.88
2023-03-30T18:24:43.169Z,13.30
2023-03-30T18:26:46.946Z,15.57
2023-03-30T18:28:50.501Z,12.52
2023-03-30T18:30:57.646Z,16.73
2023-03-30T18:33:01.687Z,19.75
2023-03-30T18:35:07.665Z,18.83
2023-03-30T18:37:11.347Z,14.07
2023-03-30T18:39:20.272Z,20.73
2023-03-30T18:41:26.073Z,18.13
2023-03-30T18:43:29.681Z,20.13
2023-03-30T18:45:36.006Z,17.35
2023-03-30T18:47:41.316Z,19.30
2023-03-30T18:49:45.154Z,24.38
2023-03-30T18:51:49.093Z,17.67
2023-03-30T18:53:52.510Z,21.25
2023-03-30T18:55:58.164Z,18.92
2023-03-30T18:58:03.589Z,23.85
2023-03-30T19:00:18.652Z,19.17
2023-03-30T19:02:22.432Z,15.13
2023-03-30T19:04:26.071Z,12.00
2023-03-30T19:06:29.581Z,11.68
2023-03-30T19:08:33.310Z,13.98
2023-03-30T19:10:40.027Z,14.10
2023-03-30T19:12:43.625Z,23.17
2023-03-30T19:14:49.673Z,16.65
2023-03-30T19:16:53.022Z,15.63
2023-03-30T19:18:56.551Z,16.42
2023-03-30T19:20:59.786Z,15.23
2023-03-30T19:23:03.060Z,18.77
2023-03-30T19:25:07.569Z,14.40
2023-03-30T19:27:11.237Z,18.42
2023-03-30T19:29:15.183Z,18.95
2023-03-30T19:31:21.178Z,18.48
2023-03-30T19:33:24.582Z,22.25
2023-03-30T19:35:28.410Z,16.58
2023-03-30T19:37:32.183Z,15.30
2023-03-30T19:39:35.582Z,15.85
2023-03-30T19:41:38.944Z,18.23
2023-03-30T19:43:42.213Z,20.70
2023-03-30T19:45:45.463Z,23.70
2023-03-30T19:47:51.386Z,16.15
2023-03-30T19:49:54.764Z,18.15
2023-03-30T19:51:58.031Z,23.35
2023-03-30T19:54:01.453Z,23.50
2023-03-30T19:56:04.770Z,21.65
2023-03-30T19:58:08.613Z,31.98
2023-03-30T20:00:15.953Z,26.70
2023-03-30T20:02:21.920Z,40.85
2023-03-30T20:04:26.608Z,32.30
2023-03-30T20:06:30.028Z,28.25
2023-03-30T20:08:33.335Z,30.60
2023-03-30T20:10:36.672Z,28.85
2023-03-30T20:12:39.981Z,28.15
2023-03-30T20:14:43.187Z,35.25
2023-03-30T20:16:47.644Z,33.20
2023-03-30T20:18:54.724Z,34.30
2023-03-30T20:20:59.846Z,38.38
2023-03-30T20:25:07.887Z,47.85
2023-03-30T20:29:14.632Z,36.30
2023-03-30T20:31:18.159Z,26.77
2023-03-30T20:33:21.930Z,44.42
2023-03-30T20:35:25.791Z,37.33
2023-03-30T20:37:30.727Z,36.50
2023-03-30T20:39:34.351Z,46.75
2023-03-30T20:41:39.197Z,38.13
2023-03-30T20:43:56.370Z,43.03
2023-03-30T20:46:03.370Z,40.28
2023-03-30T20:48:16.345Z,31.65
2023-03-30T20:50:19.804Z,43.42
2023-03-30T20:52:23.983Z,34.45
2023-03-30T20:54:29.237Z,46.70
2023-03-30T20:56:32.652Z,55.30
2023-03-30T20:58:36.129Z,45.47
2023-03-30T21:00:40.688Z,41.65
2023-03-30T21:02:44.006Z,39.47
2023-03-30T21:04:47.490Z,34.97
2023-03-30T21:06:51.944Z,37.60
2023-03-30T21:08:57.014Z,34.15
2023-03-30T21:11:02.710Z,19.00
2023-03-30T21:13:06.552Z,29.35
2023-03-30T21:15:11.215Z,36.65
2023-03-30T21:17:14.651Z,28.50
2023-03-30T21:19:17.993Z,29.70
2023-03-30T21:21:21.816Z,24.17
2023-03-30T21:23:26.859Z,18.17
2023-03-30T21:27:35.680Z,23.98
2023-03-30T21:29:38.984Z,16.52
2023-03-30T21:31:42.271Z,27.23
2023-03-30T21:33:45.859Z,8.80
2023-03-30T21:35:53.160Z,14.98
2023-03-30T21:37:56.699Z,15.55
2023-03-30T21:39:59.946Z,10.27
2023-03-30T21:42:05.319Z,19.27
2023-03-30T21:44:10.218Z,21.00
2023-03-30T21:46:16.031Z,19.17
2023-03-30T21:48:19.448Z,20.45
2023-03-30T21:50:22.739Z,28.70
2023-03-30T21:52:26.152Z,22.10
2023-03-30T21:54:29.528Z,23.00
2023-03-30T21:56:32.806Z,16.02
2023-03-30T21:58:36.421Z,23.08
2023-03-30T22:00:41.376Z,12.43
2023-03-30T22:02:44.858Z,11.75
2023-03-30T22:04:48.594Z,26.05
2023-03-30T22:06:52.005Z,31.80
2023-03-30T22:08:56.066Z,13.98
2023-03-30T22:11:03.024Z,22.73
2023-03-30T22:13:06.880Z,18.45
2023-03-30T22:15:10.867Z,32.03
2023-03-30T22:17:15.806Z,14.93
2023-03-30T22:19:22.900Z,19.65
2023-03-30T22:21:29.299Z,24.83
2023-03-30T22:23:33.459Z,31.80
2023-03-30T22:25:37.060Z,21.60
2023-03-30T22:27:40.606Z,25.48
2023-03-30T22:29:44.063Z,26.33
2023-03-30T22:31:47.987Z,14.90
2023-03-30T22:33:54.369Z,21.08
2023-03-30T22:36:00.029Z,22.23
2023-03-30T22:38:03.736Z,16.02
2023-03-30T22:40:08.060Z,22.60
2023-03-30T22:42:11.728Z,17.15
2023-03-30T22:44:17.857Z,22.80
2023-03-30T22:46:21.567Z,14.60
2023-03-30T22:48:24.855Z,19.52
2023-03-30T22:50:29.900Z,9.02
2023-03-30T22:56:39.781Z,12.07
2023-03-30T22:58:42.967Z,16.05
2023-03-30T23:00:46.427Z,13.15
2023-03-30T23:02:50.807Z,14.88
2023-03-30T23:04:55.285Z,17.00
2023-03-30T23:07:00.558Z,16.02
2023-03-30T23:09:04.409Z,18.17
2023-03-30T23:11:08.437Z,23.92
2023-03-30T23:13:11.655Z,18.85
2023-03-30T23:15:15.364Z,21.00
2023-03-30T23:17:18.669Z,19.17
2023-03-30T23:19:22.632Z,14.13
2023-03-30T23:21:25.882Z,13.45
2023-03-30T23:23:30.572Z,16.70
2023-03-30T23:25:34.111Z,25.17
2023-03-30T23:27:37.998Z,16.33
2023-03-30T23:29:41.677Z,17.55
2023-03-30T23:31:44.973Z,23.95
2023-03-30T23:33:48.243Z,18.85
2023-03-30T23:35:53.327Z,16.75
2023-03-30T23:37:56.850Z,22.05
2023-03-30T23:40:02.117Z,20.77
2023-03-30T23:42:06.646Z,16.92
2023-03-30T23:44:10.025Z,17.27
2023-03-30T23:46:14.062Z,16.42
2023-03-30T23:48:17.342Z,12.82
2023-03-30T23:50:20.568Z,11.13
2023-03-30T23:52:23.802Z,13.38
2023-03-30T23:54:31.557Z,14.45
2023-03-30T23:56:42.841Z,15.65
